createdAt,value
2023-01-13T00:02:25.058Z,32.10
2023-01-13T00:05:28.500Z,27.33
2023-01-13T00:08:31.376Z,29.55
2023-01-13T00:11:34.676Z,25.55
2023-01-13T00:14:37.419Z,27.10
2023-01-13T00:17:40.306Z,27.87
2023-01-13T00:20:44.560Z,25.27
2023-01-13T00:23:48.121Z,29.00
2023-01-13T00:26:50.690Z,27.50
2023-01-13T00:29:53.779Z,25.43
2023-01-13T00:32:56.396Z,23.52
2023-01-13T00:36:00.236Z,26.15
2023-01-13T00:39:03.354Z,25.00
2023-01-13T00:42:24.980Z,26.37
2023-01-13T00:45:27.749Z,24.20
2023-01-13T00:48:31.222Z,25.37
2023-01-13T00:51:34.078Z,24.90
2023-01-13T00:54:36.971Z,32.40
2023-01-13T00:57:40.098Z,27.42
2023-01-13T01:00:43.186Z,25.50
2023-01-13T01:03:52.622Z,26.25
2023-01-13T01:06:55.761Z,24.63
2023-01-13T01:09:58.242Z,27.75
2023-01-13T01:13:01.249Z,21.35
2023-01-13T01:16:16.760Z,21.37
2023-01-13T01:19:20.641Z,26.02
2023-01-13T01:22:23.395Z,22.80
2023-01-13T01:25:26.193Z,26.27
2023-01-13T01:28:29.806Z,25.23
2023-01-13T01:31:34.981Z,25.00
2023-01-13T01:34:39.214Z,30.00
2023-01-13T01:37:42.693Z,23.83
2023-01-13T01:40:45.395Z,23.98
2023-01-13T01:43:59.760Z,37.05
2023-01-13T01:47:03.033Z,36.20
2023-01-13T01:50:06.902Z,47.08
2023-01-13T01:53:14.501Z,39.75
2023-01-13T01:56:18.047Z,33.45
2023-01-13T01:59:22.313Z,22.55
2023-01-13T02:02:25.420Z,19.70
2023-01-13T02:05:28.411Z,21.70
2023-01-13T02:08:31.690Z,29.17
2023-01-13T02:11:54.965Z,23.33
2023-01-13T02:15:01.550Z,31.15
2023-01-13T02:18:30.860Z,43.57
2023-01-13T02:21:42.668Z,26.40
2023-01-13T02:25:15.217Z,23.50
2023-01-13T02:29:06.484Z,23.87
2023-01-13T02:32:23.118Z,24.10
2023-01-13T02:35:28.934Z,21.60
2023-01-13T02:38:40.790Z,22.20
2023-01-13T02:42:33.467Z,19.48
2023-01-13T02:45:50.538Z,20.48
2023-01-13T02:48:54.863Z,21.62
2023-01-13T02:52:03.035Z,19.87
2023-01-13T02:55:09.288Z,26.42
2023-01-13T02:58:15.925Z,22.50
2023-01-13T03:01:19.669Z,21.30
2023-01-13T03:04:50.127Z,20.58
2023-01-13T03:08:12.348Z,20.67
2023-01-13T03:11:17.749Z,23.30
2023-01-13T03:14:36.502Z,20.58
2023-01-13T03:17:43.055Z,20.92
2023-01-13T03:21:11.236Z,21.33
2023-01-13T03:24:18.090Z,20.43
2023-01-13T03:27:37.855Z,21.02
2023-01-13T03:30:50.708Z,16.98
2023-01-13T03:34:07.996Z,19.98
2023-01-13T03:37:11.542Z,18.42
2023-01-13T03:40:20.976Z,19.90
2023-01-13T03:43:51.007Z,22.55
2023-01-13T03:47:02.071Z,21.75
2023-01-13T03:50:14.709Z,18.23
2023-01-13T03:53:31.570Z,17.25
2023-01-13T03:56:35.153Z,18.23
2023-01-13T03:59:42.193Z,16.30
2023-01-13T04:03:14.756Z,18.98
2023-01-13T04:06:20.774Z,17.80
2023-01-13T04:09:29.840Z,17.02
2023-01-13T04:12:55.413Z,20.20
2023-01-13T04:16:00.193Z,19.58
2023-01-13T04:19:10.971Z,18.12
2023-01-13T04:22:13.560Z,16.10
2023-01-13T04:25:16.624Z,20.00
2023-01-13T04:28:19.864Z,22.27
2023-01-13T04:31:23.344Z,18.67
2023-01-13T04:34:28.271Z,20.60
2023-01-13T04:37:31.779Z,20.92
2023-01-13T04:40:34.423Z,18.42
2023-01-13T04:43:37.911Z,18.73
2023-01-13T04:46:40.554Z,19.10
2023-01-13T04:49:43.771Z,18.52
2023-01-13T04:52:47.588Z,16.70
2023-01-13T04:55:50.646Z,18.02
2023-01-13T04:58:53.364Z,18.80
2023-01-13T05:01:56.293Z,17.73
2023-01-13T05:04:59.315Z,15.05
2023-01-13T05:08:02.203Z,17.27
2023-01-13T05:11:25.178Z,20.73
2023-01-13T05:14:47.069Z,20.83
2023-01-13T05:17:50.417Z,20.20
2023-01-13T05:20:53.631Z,16.90
2023-01-13T05:24:14.879Z,24.40
2023-01-13T05:27:18.233Z,21.98
2023-01-13T05:30:22.739Z,17.47
2023-01-13T05:33:25.570Z,19.33
2023-01-13T05:36:28.754Z,16.92
2023-01-13T05:39:51.818Z,25.20
2023-01-13T05:43:20.954Z,19.08
2023-01-13T05:46:24.177Z,23.37
2023-01-13T05:49:27.195Z,23.23
2023-01-13T05:52:30.303Z,27.65
2023-01-13T05:55:33.085Z,19.67
2023-01-13T05:58:37.077Z,25.85
2023-01-13T06:01:39.988Z,28.13
2023-01-13T06:04:43.090Z,28.15
2023-01-13T06:07:45.918Z,30.20
2023-01-13T06:10:50.166Z,25.48
2023-01-13T06:13:53.010Z,34.63
2023-01-13T06:16:55.993Z,35.60
2023-01-13T06:20:00.579Z,25.25
2023-01-13T06:23:04.079Z,40.97
2023-01-13T06:26:14.842Z,29.25
2023-01-13T06:29:18.054Z,40.70
2023-01-13T06:32:32.921Z,35.20
2023-01-13T06:35:37.441Z,26.20
2023-01-13T06:38:43.067Z,26.20
2023-01-13T06:42:07.733Z,22.58
2023-01-13T06:45:11.068Z,25.45
2023-01-13T06:48:15.465Z,24.13
2023-01-13T06:51:18.446Z,23.55
2023-01-13T06:54:22.109Z,25.08
2023-01-13T06:57:25.115Z,23.95
2023-01-13T07:00:29.183Z,21.70
2023-01-13T07:03:31.936Z,23.27
2023-01-13T07:06:35.425Z,26.77
2023-01-13T07:09:38.394Z,23.75
2023-01-13T07:13:00.502Z,22.25
2023-01-13T07:16:05.837Z,21.73
2023-01-13T07:19:09.388Z,21.63
2023-01-13T07:22:13.775Z,23.20
2023-01-13T07:25:16.918Z,23.25
2023-01-13T07:28:19.629Z,24.50
2023-01-13T07:31:22.695Z,23.77
2023-01-13T07:34:25.690Z,23.77
2023-01-13T07:37:29.101Z,25.75
2023-01-13T07:40:32.213Z,27.48
2023-01-13T07:43:35.372Z,23.95
2023-01-13T07:46:39.523Z,25.50
2023-01-13T07:49:42.661Z,27.90
2023-01-13T07:52:45.543Z,25.83
2023-01-13T07:55:49.770Z,29.23
2023-01-13T07:58:53.422Z,26.95
2023-01-13T08:01:57.243Z,27.17
2023-01-13T08:05:00.352Z,25.53
2023-01-13T08:08:03.531Z,28.05
2023-01-13T08:11:08.039Z,26.50
2023-01-13T08:14:10.965Z,29.50
2023-01-13T08:17:14.082Z,38.67
2023-01-13T08:20:17.179Z,28.37
2023-01-13T08:23:24.456Z,22.75
2023-01-13T08:26:27.790Z,28.77
2023-01-13T08:29:30.832Z,25.35
2023-01-13T08:32:33.592Z,23.42
2023-01-13T08:35:38.267Z,24.70
2023-01-13T08:38:41.678Z,28.55
2023-01-13T08:41:56.753Z,27.35
2023-01-13T08:44:59.858Z,21.92
2023-01-13T08:48:03.860Z,26.50
2023-01-13T08:51:09.084Z,24.97
2023-01-13T08:54:12.857Z,21.62
2023-01-13T08:57:15.625Z,21.87
2023-01-13T09:00:18.989Z,20.25
2023-01-13T09:03:21.916Z,23.17
2023-01-13T09:06:24.917Z,22.23
2023-01-13T09:09:28.031Z,28.12
2023-01-13T09:12:50.276Z,27.73
2023-01-13T09:15:56.694Z,24.30
2023-01-13T09:18:59.799Z,20.25
2023-01-13T09:22:02.919Z,21.23
2023-01-13T09:25:06.529Z,21.33
2023-01-13T09:28:09.306Z,23.15
2023-01-13T09:31:12.863Z,21.12
2023-01-13T09:34:36.426Z,23.25
2023-01-13T09:37:40.847Z,20.23
2023-01-13T09:40:48.044Z,29.00
2023-01-13T09:43:56.775Z,23.92
2023-01-13T09:47:04.314Z,23.75
2023-01-13T09:50:10.557Z,24.95
2023-01-13T09:53:19.994Z,25.43
2023-01-13T09:56:23.717Z,20.25
2023-01-13T09:59:36.478Z,22.13
2023-01-13T10:02:58.573Z,18.42
2023-01-13T10:06:21.807Z,20.73
2023-01-13T10:09:32.829Z,20.30
2023-01-13T10:12:54.510Z,21.58
2023-01-13T10:16:08.622Z,20.65
2023-01-13T10:19:18.928Z,17.70
2023-01-13T10:22:36.548Z,16.05
2023-01-13T10:25:55.164Z,20.50
2023-01-13T10:28:57.978Z,19.73
2023-01-13T10:32:01.122Z,23.30
2023-01-13T10:35:03.932Z,20.45
2023-01-13T10:38:25.039Z,19.05
2023-01-13T10:41:28.049Z,20.07
2023-01-13T10:44:31.568Z,19.23
2023-01-13T10:47:36.578Z,16.67
2023-01-13T10:50:40.890Z,21.10
2023-01-13T10:54:13.253Z,20.67
2023-01-13T10:57:20.916Z,25.40
2023-01-13T11:00:27.724Z,23.27
2023-01-13T11:03:42.968Z,21.85
2023-01-13T11:06:47.363Z,22.23
2023-01-13T11:10:38.812Z,21.25
2023-01-13T11:14:02.423Z,22.63
2023-01-13T11:17:29.975Z,20.92
2023-01-13T11:20:33.822Z,18.73
2023-01-13T11:23:42.834Z,20.30
2023-01-13T11:26:51.344Z,23.98
2023-01-13T11:30:30.416Z,24.33
2023-01-13T11:33:43.219Z,24.42
2023-01-13T11:36:52.074Z,21.95
2023-01-13T11:40:06.094Z,21.58
2023-01-13T11:43:19.218Z,22.73
2023-01-13T11:46:28.671Z,22.40
2023-01-13T11:49:33.226Z,25.33
2023-01-13T11:52:53.364Z,23.23
2023-01-13T11:56:50.916Z,20.83
2023-01-13T11:59:59.065Z,21.75
2023-01-13T12:03:17.514Z,17.97
2023-01-13T12:06:39.259Z,22.98
2023-01-13T12:09:48.968Z,20.90
2023-01-13T12:13:25.616Z,24.25
2023-01-13T12:16:32.498Z,22.23
2023-01-13T12:19:36.137Z,23.93
2023-01-13T12:22:39.947Z,26.87
2023-01-13T12:25:45.907Z,24.55
2023-01-13T12:29:13.838Z,27.55
2023-01-13T12:32:24.523Z,24.77
2023-01-13T12:35:42.418Z,26.93
2023-01-13T12:38:50.528Z,25.80
2023-01-13T12:42:12.826Z,26.10
2023-01-13T12:45:18.403Z,25.65
2023-01-13T12:48:46.462Z,22.17
2023-01-13T12:51:52.432Z,25.27
2023-01-13T12:54:55.791Z,26.30
2023-01-13T12:58:04.961Z,24.15
2023-01-13T13:01:15.618Z,24.40
2023-01-13T13:04:43.730Z,24.92
2023-01-13T13:07:49.926Z,23.83
2023-01-13T13:11:07.163Z,26.27
2023-01-13T13:14:13.853Z,24.55
2023-01-13T13:17:19.922Z,28.40
2023-01-13T13:20:54.445Z,26.48
2023-01-13T13:23:57.488Z,26.43
2023-01-13T13:27:19.943Z,22.25
2023-01-13T13:30:22.924Z,28.25
2023-01-13T13:33:35.473Z,32.15
2023-01-13T13:36:41.799Z,27.37
2023-01-13T13:40:04.069Z,25.57
2023-01-13T13:43:31.105Z,25.35
2023-01-13T13:46:48.060Z,26.85
2023-01-13T13:49:54.556Z,29.10
2023-01-13T13:53:05.927Z,27.33
2023-01-13T13:56:19.025Z,30.93
2023-01-13T13:59:24.858Z,26.05
2023-01-13T14:02:35.181Z,27.85
2023-01-13T14:05:38.236Z,27.90
2023-01-13T14:08:46.698Z,38.67
2023-01-13T14:12:00.167Z,35.53
2023-01-13T14:15:03.255Z,29.92
2023-01-13T14:18:13.943Z,29.73
2023-01-13T14:21:26.824Z,25.67
2023-01-13T14:24:30.904Z,26.98
2023-01-13T14:27:35.327Z,29.03
2023-01-13T14:30:40.267Z,28.23
2023-01-13T14:33:52.018Z,36.60
2023-01-13T14:36:55.018Z,25.88
2023-01-13T14:39:57.987Z,26.50
2023-01-13T14:43:01.931Z,29.27
2023-01-13T14:46:04.996Z,30.70
2023-01-13T14:49:39.713Z,29.65
2023-01-13T14:52:51.059Z,27.77
2023-01-13T14:55:54.237Z,31.92
2023-01-13T14:58:56.867Z,37.30
2023-01-13T15:02:01.710Z,31.05
2023-01-13T15:05:19.795Z,30.20
2023-01-13T15:08:33.979Z,28.10
2023-01-13T15:11:41.010Z,33.53
2023-01-13T15:14:44.301Z,32.03
2023-01-13T15:17:47.395Z,31.27
2023-01-13T15:20:53.834Z,32.80
2023-01-13T15:23:56.547Z,31.58
2023-01-13T15:26:59.476Z,32.47
2023-01-13T15:30:20.116Z,31.77
2023-01-13T15:33:23.195Z,30.55
2023-01-13T15:36:33.775Z,27.33
2023-01-13T15:39:37.031Z,28.52
2023-01-13T15:42:58.767Z,31.45
2023-01-13T15:46:21.838Z,31.33
2023-01-13T15:49:42.782Z,35.75
2023-01-13T15:52:45.675Z,32.97
2023-01-13T15:55:51.441Z,26.95
2023-01-13T15:58:55.206Z,26.85
2023-01-13T16:01:58.150Z,26.23
2023-01-13T16:05:01.325Z,29.37
2023-01-13T16:08:04.877Z,29.87
2023-01-13T16:11:09.517Z,30.25
2023-01-13T16:14:12.220Z,29.45
2023-01-13T16:17:20.066Z,33.27
2023-01-13T16:20:24.994Z,29.80
2023-01-13T16:23:28.252Z,26.70
2023-01-13T16:26:32.785Z,26.00
2023-01-13T16:29:35.873Z,29.23
2023-01-13T16:32:38.569Z,27.63
2023-01-13T16:36:09.429Z,29.63
2023-01-13T16:39:06.140Z,25.98
2023-01-13T16:42:09.287Z,28.75
2023-01-13T16:45:12.609Z,29.55
2023-01-13T16:48:20.183Z,29.73
2023-01-13T16:51:23.860Z,27.52
2023-01-13T16:54:26.786Z,27.77
2023-01-13T16:57:29.741Z,36.70
2023-01-13T17:00:33.064Z,32.28
2023-01-13T17:03:36.019Z,34.83
2023-01-13T17:07:02.066Z,30.67
2023-01-13T17:10:05.504Z,28.30
2023-01-13T17:13:16.471Z,30.75
2023-01-13T17:16:22.203Z,24.20
2023-01-13T17:19:25.892Z,29.30
2023-01-13T17:22:30.825Z,31.90
2023-01-13T17:25:34.230Z,29.80
2023-01-13T17:28:36.981Z,28.95
2023-01-13T17:31:40.141Z,27.65
2023-01-13T17:34:43.846Z,30.67
2023-01-13T17:37:47.067Z,28.10
2023-01-13T17:40:50.682Z,31.35
2023-01-13T17:43:54.259Z,29.63
2023-01-13T17:46:57.021Z,34.45
2023-01-13T17:50:04.261Z,36.67
2023-01-13T17:53:07.865Z,35.88
2023-01-13T17:56:14.208Z,39.28
2023-01-13T17:59:21.043Z,40.40
2023-01-13T18:02:24.873Z,36.90
2023-01-13T18:05:28.086Z,33.77
2023-01-13T18:08:30.870Z,45.97
2023-01-13T18:11:34.212Z,39.42
2023-01-13T18:14:37.053Z,42.80
2023-01-13T18:17:40.162Z,42.65
2023-01-13T18:21:03.644Z,45.00
2023-01-13T18:24:30.598Z,36.03
2023-01-13T18:27:35.658Z,39.17
2023-01-13T18:30:40.619Z,36.05
2023-01-13T18:33:43.631Z,47.72
2023-01-13T18:36:46.838Z,42.20
2023-01-13T18:39:49.742Z,45.30
2023-01-13T18:42:55.138Z,46.35
2023-01-13T18:45:57.991Z,45.00
2023-01-13T18:49:01.082Z,53.05
2023-01-13T18:52:04.385Z,45.87
2023-01-13T18:55:07.899Z,53.17
2023-01-13T18:58:10.861Z,53.95
2023-01-13T19:01:16.919Z,77.47
2023-01-13T19:04:20.095Z,57.90
2023-01-13T19:07:26.945Z,54.67
2023-01-13T19:10:32.641Z,49.78
2023-01-13T19:13:36.502Z,61.35
2023-01-13T19:16:39.359Z,80.57
2023-01-13T19:19:44.882Z,73.40
2023-01-13T19:22:54.041Z,51.37
2023-01-13T19:26:01.517Z,58.67
2023-01-13T19:29:04.353Z,63.13
2023-01-13T19:32:08.097Z,53.17
2023-01-13T19:35:16.032Z,59.40
2023-01-13T19:38:19.741Z,53.10
2023-01-13T19:41:45.581Z,45.12
2023-01-13T19:45:07.531Z,54.95
2023-01-13T19:48:11.089Z,59.90
2023-01-13T19:51:14.787Z,76.65
2023-01-13T19:54:17.674Z,60.13
2023-01-13T19:57:20.896Z,47.35
2023-01-13T20:00:24.201Z,52.20
2023-01-13T20:03:31.192Z,45.30
2023-01-13T20:06:34.284Z,51.83
2023-01-13T20:09:37.685Z,58.63
2023-01-13T20:12:41.735Z,48.17
2023-01-13T20:15:45.347Z,54.20
2023-01-13T20:18:51.766Z,51.53
2023-01-13T20:21:55.087Z,52.42
2023-01-13T20:24:58.553Z,57.27
2023-01-13T20:28:02.292Z,52.00
2023-01-13T20:31:09.763Z,57.78
2023-01-13T20:34:14.646Z,54.15
2023-01-13T20:37:17.583Z,59.13
2023-01-13T20:40:20.928Z,62.30
2023-01-13T20:43:23.988Z,60.30
2023-01-13T20:46:27.761Z,55.00
2023-01-13T20:49:30.997Z,75.70
2023-01-13T20:52:34.174Z,64.12
2023-01-13T20:55:39.918Z,115.03
2023-01-13T20:58:44.225Z,77.93
2023-01-13T21:01:47.249Z,51.03
2023-01-13T21:04:50.511Z,55.25
2023-01-13T21:07:53.321Z,49.67
2023-01-13T21:11:05.337Z,49.77
2023-01-13T21:14:42.356Z,47.75
2023-01-13T21:18:05.012Z,45.97
2023-01-13T21:21:14.193Z,47.97
2023-01-13T21:24:17.512Z,46.63
2023-01-13T21:27:20.643Z,43.43
2023-01-13T21:30:24.826Z,50.12
2023-01-13T21:33:27.743Z,54.47
2023-01-13T21:36:31.010Z,91.68
2023-01-13T21:39:33.711Z,107.47
2023-01-13T21:42:55.472Z,65.03
2023-01-13T21:46:16.788Z,42.90
2023-01-13T21:49:19.907Z,43.67
2023-01-13T21:52:25.622Z,47.55
2023-01-13T21:55:29.832Z,44.17
2023-01-13T21:58:32.677Z,46.87
2023-01-13T22:02:00.210Z,48.95
2023-01-13T22:05:04.068Z,49.95
2023-01-13T22:08:08.112Z,50.88
2023-01-13T22:11:12.857Z,45.45
2023-01-13T22:14:16.221Z,50.00
2023-01-13T22:17:20.918Z,51.70
2023-01-13T22:20:24.119Z,45.33
2023-01-13T22:23:29.296Z,46.40
2023-01-13T22:26:32.126Z,40.70
2023-01-13T22:29:37.616Z,43.63
2023-01-13T22:32:40.656Z,42.95
2023-01-13T22:35:44.116Z,40.63
2023-01-13T22:38:47.176Z,40.15
2023-01-13T22:41:53.472Z,39.85
2023-01-13T22:44:56.489Z,43.77
2023-01-13T22:47:59.660Z,49.08
2023-01-13T22:51:10.973Z,48.80
2023-01-13T22:54:14.529Z,47.22
2023-01-13T22:57:21.883Z,42.78
2023-01-13T23:00:27.092Z,42.43
2023-01-13T23:03:29.970Z,45.25
2023-01-13T23:06:33.961Z,44.35
2023-01-13T23:09:36.667Z,43.00
2023-01-13T23:12:39.887Z,42.45
2023-01-13T23:15:42.831Z,59.47
2023-01-13T23:18:48.125Z,58.70
2023-01-13T23:21:50.905Z,51.00
2023-01-13T23:24:54.092Z,51.55
2023-01-13T23:27:56.816Z,49.53
2023-01-13T23:31:00.386Z,52.77
2023-01-13T23:34:03.315Z,46.58
2023-01-13T23:37:06.621Z,41.28
2023-01-13T23:40:10.339Z,132.23
2023-01-13T23:43:15.007Z,40.92
2023-01-13T23:46:17.783Z,67.27
2023-01-13T23:49:20.952Z,61.03
2023-01-13T23:52:24.078Z,77.65
2023-01-13T23:55:27.574Z,38.75
2023-01-13T23:58:30.855Z,40.35
